• Join FlightAware (Why Join?)
  • Login
  • US Flag 
01:38PM EDT


 

Airport Tracker/Info


-or-


 

Live Flight TrackerFlight Track Log ✈ JBU1580 ✈ 26-Sep-2013 ✈ KFLL - KDCA

Flight Track Log - Related Links

Times and Time Zones

All times are in EDT time to prevent confusion due to time zone crossing. See the JBU1580 flight status page for this flight to view local times or setup timezone preferences in your user account.

Time Position Orientation Groundspeed Altitude Reporting Facility
EDT Latitude Longitude Course Direction KTS MPH feet Rate Location/Type
01:22PM 26.0739 -80.1783 340° North 160 184 1,000  Level Miami Center
01:23PM 26.0772 -80.2178 275° West 166 191 2,300 1,440 Climbing Miami Center
01:23PM 26.0794 -80.2131 62° Northeast 165 190 2,200 2,220 Descending Miami Center
01:24PM 26.1228 -80.2328 338° Northwest 227 261 4,600 2,220 Climbing Miami Center
01:25PM 26.5233 -80.0566 343° North  Level Estimated
01:25PM 26.1822 -80.1953 30° Northeast 294 338 6,700  Level Miami Center
01:25PM 26.1844 -80.1836 78° East 311 358 7,200 2,280 Climbing Miami Center
01:26PM 26.6359 -80.0324 346° North  Level Estimated
01:26PM 26.2053 -80.0939 75° East 365 420 9,000  Level Miami Center
01:27PM 26.7486 -80.0082 340° North  Level Estimated
01:27PM 26.2178 -79.9994 82° East 331 381 8,900  Level Miami Center
01:28PM 26.2033 -79.8994 99° East 313 360 8,900  Level Miami Center
01:29PM 26.1864 -79.8017 101° East 313 360 8,900 1,020 Level Miami Center
01:30PM 26.2278 -79.7242 59° Northeast 282 325 11,000 1,860 Climbing Miami Center
01:31PM 26.3064 -79.6586 37° Northeast 298 343 12,700 1,800 Climbing Miami Center
01:32PM 26.3869 -79.5886 38° Northeast 345 397 14,700 2,100 Climbing Miami Center
01:33PM 26.4697 -79.5211 36° Northeast 372 428 17,000 2,340 Climbing Miami Center
01:34PM 26.5567 -79.4486 37° Northeast 377 434 19,400 2,160 Climbing Miami Center
01:35PM 26.6414 -79.3808 36° Northeast 372 428 21,400 1,560 Climbing Miami Center
01:36PM 26.7072 -79.3217 39° Northeast 372 428 22,600 1,500 Climbing Miami Center
01:37PM 26.8253 -79.2544 27° Northeast 378 435 24,400 1,140 Climbing Miami Center
01:38PM 26.9286 -79.2006 25° Northeast 390 449 24,900 780 Climbing Miami Center
01:39PM 27.0358 -79.1419 26° Northeast 405 466 26,000 1,020 Climbing Miami Center
01:40PM 27.1494 -79.0883 23° Northeast 428 493 27,000 960 Climbing Miami Center
01:41PM 27.2653 -79.0250 26° Northeast 446 513 28,000 1,080 Climbing Miami Center
01:42PM 27.3811 -78.9733 22° Northeast 446 513 29,200 1,200 Climbing Miami Center
01:43PM 27.4897 -78.9614 North 432 497 30,400 960 Climbing Miami Center
01:44PM 27.6111 -78.9425 North 445 512 31,200 1,020 Climbing Miami Center
01:45PM 27.7492 -78.9192 North 444 511 32,500 1,140 Climbing Miami Center
01:46PM 27.8706 -78.9050 North 444 511 33,500 900 Climbing Miami Center
01:47PM 27.9836 -78.8883 North 444 511 34,300 720 Climbing Miami Center
01:48PM 28.1028 -78.8692 North 444 511 35,000 780 Climbing Miami Center
01:49PM 28.2219 -78.8525 North 438 504 35,900 780 Climbing Miami Center
01:50PM 28.3372 -78.8331 North 433 498 36,600 540 Climbing Miami Center
01:51PM 28.4606 -78.8164 North 433 498 37,000 180 Climbing Miami Center
01:52PM 28.5881 -78.7975 North 439 505 37,000  Level Miami Center
01:53PM 28.7089 -78.8089 355° North 439 505 37,000  Level Miami Center
01:54PM 28.8361 -78.8303 352° North 445 512 37,000  Level Miami Center
01:55PM 28.9608 -78.8536 351° North 450 518 37,000  Level Miami Center
01:56PM 29.0794 -78.8725 352° North 450 518 37,000  Level Miami Center
01:57PM 29.2086 -78.8964 351° North 449 517 37,000  Level Miami Center
01:58PM 29.3294 -78.9103 354° North 443 510 37,000  Level Miami Center
01:59PM 29.4544 -78.9200 356° North 450 518 37,000  Level Miami Center
02:01PM 29.7506 -78.9506 355° North 444 511 37,000  Level Jacksonville Center
02:02PM 29.8694 -78.9456 North 424 488 37,000  Level Jacksonville Center
02:03PM 29.9853 -78.9169 12° North 438 504 37,000  Level Jacksonville Center
02:04PM 30.1161 -78.8947 North 451 519 37,000  Level Jacksonville Center
02:05PM 30.2406 -78.8703 10° North 451 519 37,000  Level Jacksonville Center
02:06PM 30.3608 -78.8436 11° North 445 512 37,000  Level Jacksonville Center
02:07PM 30.4894 -78.8142 11° North 450 518 37,000  Level Jacksonville Center
02:08PM 30.6158 -78.7844 11° North 450 518 37,000  Level Jacksonville Center
02:09PM 30.7336 -78.7553 12° North 444 511 37,000  Level Jacksonville Center
02:10PM 30.8622 -78.7278 10° North 456 525 37,000  Level Jacksonville Center
02:11PM 30.9844 -78.6983 12° North 456 525 37,000  Level Jacksonville Center
02:12PM 31.1233 -78.6653 12° North 456 525 37,000  Level Jacksonville Center
02:13PM 31.2456 -78.6381 11° North 451 519 37,000  Level Jacksonville Center
02:14PM 31.3717 -78.6031 13° North 450 518 37,000  Level Jacksonville Center
02:15PM 31.4961 -78.5778 10° North 450 518 37,000  Level Jacksonville Center
02:16PM 31.6203 -78.5478 12° North 448 516 37,000  Level Jacksonville Center
02:17PM 31.7444 -78.5197 11° North 448 516 37,000  Level Jacksonville Center
02:18PM 31.8708 -78.4869 12° North 453 521 37,000  Level Jacksonville Center
02:19PM 31.9950 -78.4589 11° North 453 521 37,000  Level Jacksonville Center
02:20PM 32.1192 -78.4286 12° North 447 514 37,000  Level Jacksonville Center
02:21PM 32.2392 -78.3981 12° North 447 514 37,000  Level Jacksonville Center
02:22PM 32.3633 -78.3650 13° North 447 514 37,000  Level Jacksonville Center
02:23PM 32.4894 -78.3339 12° North 447 514 37,000  Level Jacksonville Center
02:24PM 32.6117 -78.3056 11° North 447 514 37,000  Level Jacksonville Center
02:25PM 32.7358 -78.2772 11° North 447 514 37,000  Level Jacksonville Center
02:26PM 32.8575 -78.2436 13° North 447 514 37,000  Level Jacksonville Center
02:27PM 32.9817 -78.2150 11° North 447 514 37,000  Level Jacksonville Center
02:30PM 33.2622 -78.1469 11° North 448 516 37,000  Level Washington Center
02:31PM 33.3881 -78.1158 12° North 448 516 37,000  Level Washington Center
02:32PM 33.5139 -78.0847 12° North 448 516 37,000  Level Washington Center
02:33PM 33.6397 -78.0536 12° North 448 516 37,000  Level Washington Center
02:34PM 33.7633 -78.0247 11° North 448 516 37,000  Level Washington Center
02:35PM 33.8911 -77.9936 11° North 454 522 37,000  Level Washington Center
02:36PM 34.0339 -77.9525 13° North 460 529 37,000  Level Washington Center
02:37PM 34.1594 -77.9236 11° North 460 529 37,000  Level Washington Center
02:38PM 34.2853 -77.8919 12° North 460 529 37,000  Level Washington Center
02:39PM 34.4150 -77.8703 North 466 536 37,000  Level Washington Center
02:40PM 34.5406 -77.8586 North 461 531 37,000  Level Washington Center
02:41PM 34.6661 -77.8444 North 461 531 37,000 -300 Level Washington Center
02:42PM 34.7914 -77.8303 North 461 531 36,500 -780 Descending Washington Center
02:43PM 34.9147 -77.8158 North 454 522 35,500 -780 Descending Washington Center
02:44PM 35.0278 -77.8039 North 454 522 35,000 -300 Descending Washington Center
02:45PM 35.1511 -77.7919 North 449 517 35,000  Level Washington Center
02:46PM 35.2767 -77.7750 North 444 511 35,000  Level Washington Center
02:47PM 35.4019 -77.7631 North 444 511 35,000  Level Washington Center
02:48PM 35.5253 -77.7486 North 444 511 35,000 -420 Level Washington Center
02:49PM 35.6508 -77.7367 North 444 511 34,200 -960 Descending Washington Center
02:50PM 35.7719 -77.7244 North 444 511 33,100 -660 Descending Washington Center
02:51PM 35.8953 -77.7125 North 444 511 33,000 -60 Descending Washington Center
02:52PM 36.0144 -77.6950 North 444 511 33,000 -360 Level Washington Center
02:53PM 36.1361 -77.6675 10° North 444 511 32,300 -1,260 Descending Washington Center
02:54PM 36.2575 -77.6372 11° North 444 511 30,500 -1,860 Descending Washington Center
02:55PM 36.3728 -77.6067 12° North 438 504 28,700 -1,800 Descending Washington Center
02:56PM 36.4964 -77.5764 11° North 416 479 27,000 -900 Descending Washington Center
02:57PM 36.6117 -77.5481 11° North 410 472 27,000 -300 Level Washington Center
02:58PM 36.7247 -77.5172 12° North 410 472 26,400 -900 Descending Washington Center
02:59PM 36.8419 -77.4892 11° North 415 478 25,200 -1,140 Descending Washington Center
03:00PM 36.9531 -77.4606 12° North 410 472 24,200 -660 Descending Washington Center
03:01PM 37.0642 -77.4319 12° North 410 472 24,000 -240 Descending Washington Center
03:02PM 37.1750 -77.4033 12° North 410 472 23,800 -600 Descending Washington Center
03:03PM 37.2861 -77.3772 11° North 410 472 22,900 -900 Descending Washington Center
03:04PM 37.3969 -77.3486 12° North 410 472 22,100 -480 Descending Washington Center
03:05PM 37.4850 -77.3244 12° North 410 472 22,000 -300 Descending Washington Center
03:06PM 37.6064 -77.2983 10° North 405 466 21,500 -1,260 Descending Washington Center
03:07PM 37.7150 -77.2772 North 405 466 19,500 -2,040 Descending Washington Center
03:08PM 37.8197 -77.2533 10° North 393 452 17,400 -2,100 Descending Washington Center
03:09PM 37.9200 -77.2317 10° North 379 436 15,400 -2,040 Descending Washington Center
03:10PM 38.0206 -77.2128 North 367 422 13,400 -1,980 Descending Washington Center
03:11PM 38.1186 -77.1939 North 362 417 11,500 -1,680 Descending Washington Center
03:12PM 38.2192 -77.1642 13° North 344 396 10,100 -720 Descending Washington Center
03:13PM 38.2944 -77.1553 North 307 353 10,100 -660 Level Washington Center
03:14PM 38.3594 -77.1194 23° Northeast 280 322 8,800 -1,380 Descending Washington Center
03:15PM 38.4269 -77.0706 30° Northeast 269 310 7,300 -1,320 Descending Washington Center
03:16PM 38.4858 -77.0267 30° Northeast 258 297 6,300 -960 Descending Washington Center
03:17PM 38.5444 -77.0092 13° North 229 264 5,500 -900 Descending Washington Center
03:18PM 38.6028 -77.0156 355° North 212 244 4,600 -1,260 Descending Washington Center
03:18PM 38.6333 -77.0167 358° North 196 226 3,600 -1,320 Descending Potomac TRACON
03:19PM 38.6833 -77.0167 360° North 196 226 2,600 -840 Descending Potomac TRACON
03:20PM 38.7333 -77.0333 345° North 185 213 2,000 -840 Descending Potomac TRACON
03:21PM 38.7833 -77.0333 360° North 161 185 1,100 -840 Descending Potomac TRACON
03:22PM 38.8167 -77.0333 360° North 131 151 400 -720 Descending Potomac TRACON